sensor_id;sensor_type;location;lat;lon;timestamp;P1;durP1;ratioP1;P2;durP2;ratioP2
17650;SDS011;26663;59.302;18.082;2022-12-07T00:01:46;2.40;;;2.30;;
17650;SDS011;26663;59.302;18.082;2022-12-07T00:04:51;2.07;;;2.00;;
17650;SDS011;26663;59.302;18.082;2022-12-07T00:07:55;6.03;;;2.57;;
17650;SDS011;26663;59.302;18.082;2022-12-07T00:11:01;2.47;;;2.30;;
17650;SDS011;26663;59.302;18.082;2022-12-07T00:14:09;2.53;;;2.33;;
17650;SDS011;26663;59.302;18.082;2022-12-07T00:17:15;2.13;;;1.97;;
17650;SDS011;26663;59.302;18.082;2022-12-07T00:20:20;2.37;;;2.27;;
17650;SDS011;26663;59.302;18.082;2022-12-07T00:23:25;3.47;;;2.17;;
17650;SDS011;26663;59.302;18.082;2022-12-07T00:26:31;2.13;;;2.00;;
17650;SDS011;26663;59.302;18.082;2022-12-07T00:29:39;2.43;;;2.23;;
17650;SDS011;26663;59.302;18.082;2022-12-07T00:32:44;4.40;;;2.20;;
17650;SDS011;26663;59.302;18.082;2022-12-07T00:35:54;2.30;;;2.20;;
17650;SDS011;26663;59.302;18.082;2022-12-07T00:38:59;2.83;;;2.20;;
17650;SDS011;26663;59.302;18.082;2022-12-07T00:42:04;2.43;;;2.20;;
17650;SDS011;26663;59.302;18.082;2022-12-07T00:45:12;5.40;;;2.20;;
17650;SDS011;26663;59.302;18.082;2022-12-07T00:48:17;3.03;;;2.23;;
17650;SDS011;26663;59.302;18.082;2022-12-07T00:51:24;3.70;;;2.00;;
17650;SDS011;26663;59.302;18.082;2022-12-07T00:54:29;2.40;;;2.30;;
17650;SDS011;26663;59.302;18.082;2022-12-07T00:57:34;5.23;;;2.20;;
17650;SDS011;26663;59.302;18.082;2022-12-07T01:00:41;5.03;;;2.40;;
17650;SDS011;26663;59.302;18.082;2022-12-07T01:03:46;2.73;;;1.80;;
17650;SDS011;26663;59.302;18.082;2022-12-07T01:06:51;2.10;;;1.93;;
17650;SDS011;26663;59.302;18.082;2022-12-07T01:09:56;2.03;;;1.97;;
17650;SDS011;26663;59.302;18.082;2022-12-07T01:13:02;2.17;;;2.07;;
17650;SDS011;26663;59.302;18.082;2022-12-07T01:16:09;2.60;;;1.90;;
17650;SDS011;26663;59.302;18.082;2022-12-07T01:19:16;3.47;;;2.10;;
17650;SDS011;26663;59.302;18.082;2022-12-07T01:22:21;3.17;;;2.03;;
17650;SDS011;26663;59.302;18.082;2022-12-07T01:25:25;3.73;;;2.30;;
17650;SDS011;26663;59.302;18.082;2022-12-07T01:28:31;3.50;;;1.90;;
17650;SDS011;26663;59.302;18.082;2022-12-07T01:31:37;5.73;;;2.33;;
17650;SDS011;26663;59.302;18.082;2022-12-07T01:34:42;2.27;;;2.07;;
17650;SDS011;26663;59.302;18.082;2022-12-07T01:37:47;4.57;;;2.37;;
17650;SDS011;26663;59.302;18.082;2022-12-07T01:40:56;2.77;;;1.80;;
17650;SDS011;26663;59.302;18.082;2022-12-07T01:44:08;2.03;;;1.97;;
17650;SDS011;26663;59.302;18.082;2022-12-07T01:47:25;4.70;;;1.80;;
17650;SDS011;26663;59.302;18.082;2022-12-07T01:50:29;3.73;;;2.23;;
17650;SDS011;26663;59.302;18.082;2022-12-07T01:53:36;1.83;;;1.80;;
17650;SDS011;26663;59.302;18.082;2022-12-07T01:56:45;1.63;;;1.63;;
17650;SDS011;26663;59.302;18.082;2022-12-07T01:59:53;1.90;;;1.90;;
17650;SDS011;26663;59.302;18.082;2022-12-07T02:03:16;2.00;;;1.90;;
17650;SDS011;26663;59.302;18.082;2022-12-07T02:06:24;2.50;;;2.03;;
17650;SDS011;26663;59.302;18.082;2022-12-07T02:09:30;1.90;;;1.83;;
17650;SDS011;26663;59.302;18.082;2022-12-07T02:12:35;3.47;;;2.00;;
17650;SDS011;26663;59.302;18.082;2022-12-07T02:19:11;1.97;;;1.97;;
17650;SDS011;26663;59.302;18.082;2022-12-07T02:22:54;2.27;;;2.00;;
17650;SDS011;26663;59.302;18.082;2022-12-07T02:29:42;2.37;;;2.27;;
17650;SDS011;26663;59.302;18.082;2022-12-07T02:32:53;2.00;;;1.90;;
17650;SDS011;26663;59.302;18.082;2022-12-07T02:36:01;1.73;;;1.70;;
17650;SDS011;26663;59.302;18.082;2022-12-07T02:39:11;2.23;;;2.10;;
17650;SDS011;26663;59.302;18.082;2022-12-07T02:42:22;7.33;;;2.10;;
17650;SDS011;26663;59.302;18.082;2022-12-07T02:45:32;2.60;;;1.80;;
17650;SDS011;26663;59.302;18.082;2022-12-07T02:48:38;1.80;;;1.80;;
17650;SDS011;26663;59.302;18.082;2022-12-07T02:51:45;2.27;;;2.17;;
17650;SDS011;26663;59.302;18.082;2022-12-07T02:54:50;2.23;;;2.00;;
17650;SDS011;26663;59.302;18.082;2022-12-07T02:58:04;2.23;;;2.20;;
17650;SDS011;26663;59.302;18.082;2022-12-07T03:01:19;4.77;;;2.10;;
17650;SDS011;26663;59.302;18.082;2022-12-07T03:04:33;2.87;;;2.00;;
17650;SDS011;26663;59.302;18.082;2022-12-07T03:07:48;2.63;;;1.83;;
17650;SDS011;26663;59.302;18.082;2022-12-07T03:10:56;2.13;;;1.90;;
17650;SDS011;26663;59.302;18.082;2022-12-07T03:14:02;2.03;;;2.03;;
17650;SDS011;26663;59.302;18.082;2022-12-07T03:17:16;2.87;;;1.87;;
17650;SDS011;26663;59.302;18.082;2022-12-07T03:20:24;6.57;;;2.03;;
17650;SDS011;26663;59.302;18.082;2022-12-07T03:23:29;2.10;;;1.77;;
17650;SDS011;26663;59.302;18.082;2022-12-07T03:26:37;4.83;;;1.97;;
17650;SDS011;26663;59.302;18.082;2022-12-07T03:29:45;2.93;;;2.20;;
17650;SDS011;26663;59.302;18.082;2022-12-07T03:32:54;1.70;;;1.70;;
17650;SDS011;26663;59.302;18.082;2022-12-07T03:36:06;2.10;;;2.00;;
17650;SDS011;26663;59.302;18.082;2022-12-07T03:39:17;2.23;;;2.03;;
17650;SDS011;26663;59.302;18.082;2022-12-07T03:42:25;3.53;;;2.03;;
17650;SDS011;26663;59.302;18.082;2022-12-07T03:45:31;2.30;;;2.20;;
17650;SDS011;26663;59.302;18.082;2022-12-07T03:48:42;3.03;;;1.83;;
17650;SDS011;26663;59.302;18.082;2022-12-07T03:51:54;2.63;;;2.10;;
17650;SDS011;26663;59.302;18.082;2022-12-07T03:55:02;3.40;;;2.17;;
17650;SDS011;26663;59.302;18.082;2022-12-07T03:58:13;1.80;;;1.67;;
17650;SDS011;26663;59.302;18.082;2022-12-07T04:01:20;2.73;;;2.10;;
17650;SDS011;26663;59.302;18.082;2022-12-07T04:04:27;1.97;;;1.87;;
17650;SDS011;26663;59.302;18.082;2022-12-07T04:07:32;1.67;;;1.67;;
17650;SDS011;26663;59.302;18.082;2022-12-07T04:10:37;2.73;;;2.00;;
17650;SDS011;26663;59.302;18.082;2022-12-07T04:13:42;1.63;;;1.63;;
17650;SDS011;26663;59.302;18.082;2022-12-07T04:17:05;3.40;;;1.80;;
17650;SDS011;26663;59.302;18.082;2022-12-07T04:20:12;2.23;;;1.80;;
17650;SDS011;26663;59.302;18.082;2022-12-07T04:23:17;1.93;;;1.83;;
17650;SDS011;26663;59.302;18.082;2022-12-07T04:26:22;2.77;;;1.57;;
17650;SDS011;26663;59.302;18.082;2022-12-07T04:29:27;1.90;;;1.80;;
17650;SDS011;26663;59.302;18.082;2022-12-07T04:32:32;2.20;;;1.80;;
17650;SDS011;26663;59.302;18.082;2022-12-07T04:35:39;2.30;;;2.10;;
17650;SDS011;26663;59.302;18.082;2022-12-07T04:38:45;2.20;;;1.90;;
17650;SDS011;26663;59.302;18.082;2022-12-07T04:41:50;2.03;;;1.93;;
17650;SDS011;26663;59.302;18.082;2022-12-07T04:44:55;1.67;;;1.63;;
17650;SDS011;26663;59.302;18.082;2022-12-07T04:48:00;3.87;;;1.90;;
17650;SDS011;26663;59.302;18.082;2022-12-07T04:51:06;3.33;;;2.53;;
17650;SDS011;26663;59.302;18.082;2022-12-07T04:54:11;1.73;;;1.43;;
17650;SDS011;26663;59.302;18.082;2022-12-07T04:57:17;1.80;;;1.80;;
17650;SDS011;26663;59.302;18.082;2022-12-07T05:00:21;2.13;;;2.03;;
17650;SDS011;26663;59.302;18.082;2022-12-07T05:03:27;3.30;;;2.13;;
17650;SDS011;26663;59.302;18.082;2022-12-07T05:06:33;4.30;;;2.00;;
17650;SDS011;26663;59.302;18.082;2022-12-07T05:09:38;2.80;;;1.63;;
17650;SDS011;26663;59.302;18.082;2022-12-07T05:12:43;2.30;;;1.80;;
17650;SDS011;26663;59.302;18.082;2022-12-07T05:15:48;4.90;;;1.97;;
17650;SDS011;26663;59.302;18.082;2022-12-07T05:18:53;4.00;;;1.73;;
17650;SDS011;26663;59.302;18.082;2022-12-07T05:21:59;2.10;;;2.00;;
17650;SDS011;26663;59.302;18.082;2022-12-07T05:25:04;3.53;;;2.00;;
17650;SDS011;26663;59.302;18.082;2022-12-07T05:28:18;1.80;;;1.70;;
17650;SDS011;26663;59.302;18.082;2022-12-07T05:31:23;1.90;;;1.80;;
17650;SDS011;26663;59.302;18.082;2022-12-07T05:34:29;1.80;;;1.80;;
17650;SDS011;26663;59.302;18.082;2022-12-07T05:37:35;2.40;;;1.93;;
17650;SDS011;26663;59.302;18.082;2022-12-07T05:40:40;2.37;;;2.13;;
17650;SDS011;26663;59.302;18.082;2022-12-07T05:43:45;2.83;;;1.80;;
17650;SDS011;26663;59.302;18.082;2022-12-07T05:46:50;2.23;;;2.03;;
17650;SDS011;26663;59.302;18.082;2022-12-07T05:49:54;1.97;;;1.97;;
17650;SDS011;26663;59.302;18.082;2022-12-07T05:53:01;2.30;;;1.80;;
17650;SDS011;26663;59.302;18.082;2022-12-07T05:56:06;1.80;;;1.70;;
17650;SDS011;26663;59.302;18.082;2022-12-07T05:59:11;3.20;;;1.60;;
17650;SDS011;26663;59.302;18.082;2022-12-07T06:02:30;1.77;;;1.67;;
17650;SDS011;26663;59.302;18.082;2022-12-07T06:05:35;2.47;;;1.80;;
17650;SDS011;26663;59.302;18.082;2022-12-07T06:08:41;3.77;;;2.03;;
17650;SDS011;26663;59.302;18.082;2022-12-07T06:11:46;2.93;;;2.10;;
17650;SDS011;26663;59.302;18.082;2022-12-07T06:15:09;3.03;;;1.90;;
17650;SDS011;26663;59.302;18.082;2022-12-07T06:18:15;1.87;;;1.77;;
17650;SDS011;26663;59.302;18.082;2022-12-07T06:21:20;2.13;;;1.90;;
17650;SDS011;26663;59.302;18.082;2022-12-07T06:24:26;1.83;;;1.83;;
17650;SDS011;26663;59.302;18.082;2022-12-07T06:27:31;1.97;;;1.87;;
17650;SDS011;26663;59.302;18.082;2022-12-07T06:30:37;3.50;;;1.87;;
17650;SDS011;26663;59.302;18.082;2022-12-07T06:33:42;2.97;;;1.93;;
17650;SDS011;26663;59.302;18.082;2022-12-07T06:36:47;6.33;;;1.90;;
17650;SDS011;26663;59.302;18.082;2022-12-07T06:39:55;1.83;;;1.73;;
17650;SDS011;26663;59.302;18.082;2022-12-07T06:43:00;2.87;;;1.70;;
17650;SDS011;26663;59.302;18.082;2022-12-07T06:46:05;1.73;;;1.63;;
17650;SDS011;26663;59.302;18.082;2022-12-07T06:49:11;1.93;;;1.83;;
17650;SDS011;26663;59.302;18.082;2022-12-07T06:52:16;4.33;;;1.60;;
17650;SDS011;26663;59.302;18.082;2022-12-07T06:55:23;1.63;;;1.60;;
17650;SDS011;26663;59.302;18.082;2022-12-07T06:58:28;4.33;;;2.00;;
17650;SDS011;26663;59.302;18.082;2022-12-07T07:01:33;2.27;;;2.03;;
17650;SDS011;26663;59.302;18.082;2022-12-07T07:04:38;1.73;;;1.63;;
17650;SDS011;26663;59.302;18.082;2022-12-07T07:07:44;3.33;;;2.10;;
17650;SDS011;26663;59.302;18.082;2022-12-07T07:11:10;5.17;;;2.03;;
17650;SDS011;26663;59.302;18.082;2022-12-07T07:14:15;2.40;;;1.93;;
17650;SDS011;26663;59.302;18.082;2022-12-07T07:17:21;8.60;;;2.07;;
17650;SDS011;26663;59.302;18.082;2022-12-07T07:20:26;2.00;;;1.90;;
17650;SDS011;26663;59.302;18.082;2022-12-07T07:23:32;3.77;;;1.90;;
17650;SDS011;26663;59.302;18.082;2022-12-07T07:26:39;2.10;;;1.87;;
17650;SDS011;26663;59.302;18.082;2022-12-07T07:29:44;2.87;;;1.53;;
17650;SDS011;26663;59.302;18.082;2022-12-07T07:32:49;2.90;;;1.87;;
17650;SDS011;26663;59.302;18.082;2022-12-07T07:35:54;2.30;;;2.20;;
17650;SDS011;26663;59.302;18.082;2022-12-07T07:38:59;3.90;;;1.97;;
17650;SDS011;26663;59.302;18.082;2022-12-07T07:42:05;3.60;;;1.90;;
17650;SDS011;26663;59.302;18.082;2022-12-07T07:45:11;6.13;;;1.90;;
17650;SDS011;26663;59.302;18.082;2022-12-07T07:48:16;3.10;;;1.90;;
17650;SDS011;26663;59.302;18.082;2022-12-07T07:51:20;1.97;;;1.90;;
17650;SDS011;26663;59.302;18.082;2022-12-07T07:54:25;2.03;;;1.87;;
17650;SDS011;26663;59.302;18.082;2022-12-07T07:57:32;2.20;;;2.03;;
17650;SDS011;26663;59.302;18.082;2022-12-07T08:00:37;2.10;;;2.00;;
17650;SDS011;26663;59.302;18.082;2022-12-07T08:03:42;2.10;;;2.10;;
17650;SDS011;26663;59.302;18.082;2022-12-07T08:06:46;2.33;;;1.83;;
17650;SDS011;26663;59.302;18.082;2022-12-07T08:09:51;2.00;;;1.90;;
17650;SDS011;26663;59.302;18.082;2022-12-07T08:12:58;2.47;;;2.10;;
17650;SDS011;26663;59.302;18.082;2022-12-07T08:16:17;2.03;;;1.90;;
17650;SDS011;26663;59.302;18.082;2022-12-07T08:19:22;1.90;;;1.80;;
17650;SDS011;26663;59.302;18.082;2022-12-07T08:22:27;3.00;;;2.03;;
17650;SDS011;26663;59.302;18.082;2022-12-07T08:25:32;3.80;;;1.90;;
17650;SDS011;26663;59.302;18.082;2022-12-07T08:28:39;5.13;;;1.90;;
17650;SDS011;26663;59.302;18.082;2022-12-07T08:31:44;3.23;;;1.93;;
17650;SDS011;26663;59.302;18.082;2022-12-07T08:34:49;3.67;;;2.30;;
17650;SDS011;26663;59.302;18.082;2022-12-07T08:37:53;5.10;;;2.00;;
17650;SDS011;26663;59.302;18.082;2022-12-07T08:41:00;2.00;;;1.90;;
17650;SDS011;26663;59.302;18.082;2022-12-07T08:44:06;3.03;;;1.70;;
17650;SDS011;26663;59.302;18.082;2022-12-07T08:47:11;4.83;;;1.93;;
17650;SDS011;26663;59.302;18.082;2022-12-07T08:50:16;4.83;;;2.23;;
17650;SDS011;26663;59.302;18.082;2022-12-07T08:53:21;1.80;;;1.80;;
17650;SDS011;26663;59.302;18.082;2022-12-07T08:56:26;3.40;;;2.00;;
17650;SDS011;26663;59.302;18.082;2022-12-07T08:59:33;3.17;;;1.77;;
17650;SDS011;26663;59.302;18.082;2022-12-07T09:02:39;2.30;;;2.10;;
17650;SDS011;26663;59.302;18.082;2022-12-07T09:05:44;2.77;;;2.27;;
17650;SDS011;26663;59.302;18.082;2022-12-07T09:08:51;2.30;;;2.10;;
17650;SDS011;26663;59.302;18.082;2022-12-07T09:11:58;4.73;;;2.20;;
17650;SDS011;26663;59.302;18.082;2022-12-07T09:15:04;2.17;;;2.03;;
17650;SDS011;26663;59.302;18.082;2022-12-07T09:18:10;2.13;;;2.03;;
17650;SDS011;26663;59.302;18.082;2022-12-07T09:21:15;2.17;;;1.93;;
17650;SDS011;26663;59.302;18.082;2022-12-07T09:24:20;2.27;;;2.17;;
17650;SDS011;26663;59.302;18.082;2022-12-07T09:27:26;2.90;;;2.10;;
17650;SDS011;26663;59.302;18.082;2022-12-07T09:30:33;2.00;;;1.90;;
17650;SDS011;26663;59.302;18.082;2022-12-07T09:33:59;3.30;;;3.10;;
17650;SDS011;26663;59.302;18.082;2022-12-07T09:37:05;2.60;;;1.90;;
17650;SDS011;26663;59.302;18.082;2022-12-07T09:40:10;2.10;;;2.00;;
17650;SDS011;26663;59.302;18.082;2022-12-07T09:43:17;2.30;;;1.90;;
17650;SDS011;26663;59.302;18.082;2022-12-07T09:46:24;1.80;;;1.80;;
17650;SDS011;26663;59.302;18.082;2022-12-07T09:49:30;1.97;;;1.87;;
17650;SDS011;26663;59.302;18.082;2022-12-07T09:52:35;2.03;;;1.80;;
17650;SDS011;26663;59.302;18.082;2022-12-07T09:55:41;1.80;;;1.70;;
17650;SDS011;26663;59.302;18.082;2022-12-07T09:58:46;2.50;;;2.40;;
17650;SDS011;26663;59.302;18.082;2022-12-07T10:01:53;2.30;;;2.20;;
17650;SDS011;26663;59.302;18.082;2022-12-07T10:04:58;2.47;;;2.03;;
17650;SDS011;26663;59.302;18.082;2022-12-07T10:08:04;2.53;;;2.20;;
17650;SDS011;26663;59.302;18.082;2022-12-07T10:11:12;2.83;;;2.63;;
17650;SDS011;26663;59.302;18.082;2022-12-07T10:14:18;2.10;;;1.70;;
17650;SDS011;26663;59.302;18.082;2022-12-07T10:17:49;2.23;;;2.13;;
17650;SDS011;26663;59.302;18.082;2022-12-07T10:24:23;1.87;;;1.77;;
17650;SDS011;26663;59.302;18.082;2022-12-07T10:27:29;2.37;;;2.17;;
17650;SDS011;26663;59.302;18.082;2022-12-07T10:30:45;4.50;;;1.73;;
17650;SDS011;26663;59.302;18.082;2022-12-07T10:34:03;2.10;;;2.10;;
17650;SDS011;26663;59.302;18.082;2022-12-07T10:37:17;2.20;;;1.80;;
17650;SDS011;26663;59.302;18.082;2022-12-07T10:40:27;3.23;;;1.93;;
17650;SDS011;26663;59.302;18.082;2022-12-07T10:43:34;2.00;;;1.90;;
17650;SDS011;26663;59.302;18.082;2022-12-07T10:50:12;4.30;;;2.33;;
17650;SDS011;26663;59.302;18.082;2022-12-07T10:53:47;4.50;;;1.90;;
17650;SDS011;26663;59.302;18.082;2022-12-07T10:57:02;3.70;;;2.77;;
17650;SDS011;26663;59.302;18.082;2022-12-07T11:00:14;4.97;;;2.20;;
17650;SDS011;26663;59.302;18.082;2022-12-07T11:03:23;1.70;;;1.60;;
17650;SDS011;26663;59.302;18.082;2022-12-07T11:06:36;2.40;;;2.40;;
17650;SDS011;26663;59.302;18.082;2022-12-07T11:09:47;1.93;;;1.83;;
17650;SDS011;26663;59.302;18.082;2022-12-07T11:13:25;2.90;;;2.20;;
17650;SDS011;26663;59.302;18.082;2022-12-07T11:16:36;1.90;;;1.80;;
17650;SDS011;26663;59.302;18.082;2022-12-07T11:19:53;2.57;;;2.20;;
17650;SDS011;26663;59.302;18.082;2022-12-07T11:23:09;2.67;;;2.00;;
17650;SDS011;26663;59.302;18.082;2022-12-07T11:26:24;2.00;;;1.93;;
17650;SDS011;26663;59.302;18.082;2022-12-07T11:29:43;2.37;;;2.17;;
17650;SDS011;26663;59.302;18.082;2022-12-07T11:33:06;6.90;;;3.70;;
17650;SDS011;26663;59.302;18.082;2022-12-07T11:36:24;2.80;;;2.13;;
17650;SDS011;26663;59.302;18.082;2022-12-07T11:39:41;2.67;;;2.00;;
17650;SDS011;26663;59.302;18.082;2022-12-07T11:42:50;3.23;;;2.20;;
17650;SDS011;26663;59.302;18.082;2022-12-07T11:45:58;2.03;;;1.90;;
17650;SDS011;26663;59.302;18.082;2022-12-07T11:49:10;2.30;;;2.10;;
17650;SDS011;26663;59.302;18.082;2022-12-07T11:52:22;2.33;;;2.10;;
17650;SDS011;26663;59.302;18.082;2022-12-07T11:55:38;2.10;;;2.10;;
17650;SDS011;26663;59.302;18.082;2022-12-07T11:58:48;2.83;;;2.40;;
17650;SDS011;26663;59.302;18.082;2022-12-07T12:01:56;2.27;;;2.17;;
17650;SDS011;26663;59.302;18.082;2022-12-07T12:05:05;1.93;;;1.83;;
17650;SDS011;26663;59.302;18.082;2022-12-07T12:08:17;2.27;;;2.17;;
17650;SDS011;26663;59.302;18.082;2022-12-07T12:11:50;2.20;;;2.03;;
17650;SDS011;26663;59.302;18.082;2022-12-07T12:15:38;2.03;;;1.77;;
17650;SDS011;26663;59.302;18.082;2022-12-07T12:18:53;3.20;;;1.90;;
17650;SDS011;26663;59.302;18.082;2022-12-07T12:22:20;1.93;;;1.80;;
17650;SDS011;26663;59.302;18.082;2022-12-07T12:25:28;1.57;;;1.47;;
17650;SDS011;26663;59.302;18.082;2022-12-07T12:28:38;4.57;;;1.80;;
17650;SDS011;26663;59.302;18.082;2022-12-07T12:32:04;1.60;;;1.60;;
17650;SDS011;26663;59.302;18.082;2022-12-07T12:35:26;1.57;;;1.57;;
17650;SDS011;26663;59.302;18.082;2022-12-07T12:38:33;2.27;;;2.10;;
17650;SDS011;26663;59.302;18.082;2022-12-07T12:45:22;1.80;;;1.70;;
17650;SDS011;26663;59.302;18.082;2022-12-07T12:48:28;2.13;;;1.80;;
17650;SDS011;26663;59.302;18.082;2022-12-07T12:51:37;1.80;;;1.70;;
17650;SDS011;26663;59.302;18.082;2022-12-07T12:54:58;2.67;;;2.20;;
17650;SDS011;26663;59.302;18.082;2022-12-07T13:01:39;2.27;;;2.17;;
17650;SDS011;26663;59.302;18.082;2022-12-07T13:04:53;3.70;;;1.80;;
17650;SDS011;26663;59.302;18.082;2022-12-07T13:08:00;3.03;;;1.83;;
17650;SDS011;26663;59.302;18.082;2022-12-07T13:11:16;3.20;;;1.50;;
17650;SDS011;26663;59.302;18.082;2022-12-07T13:18:04;2.00;;;1.90;;
17650;SDS011;26663;59.302;18.082;2022-12-07T13:21:42;2.90;;;1.73;;
17650;SDS011;26663;59.302;18.082;2022-12-07T13:24:47;3.07;;;2.00;;
17650;SDS011;26663;59.302;18.082;2022-12-07T13:27:55;2.07;;;1.90;;
17650;SDS011;26663;59.302;18.082;2022-12-07T13:31:10;3.40;;;1.73;;
17650;SDS011;26663;59.302;18.082;2022-12-07T13:34:38;4.97;;;1.80;;
17650;SDS011;26663;59.302;18.082;2022-12-07T13:37:44;2.57;;;1.90;;
17650;SDS011;26663;59.302;18.082;2022-12-07T13:41:10;2.80;;;2.20;;
17650;SDS011;26663;59.302;18.082;2022-12-07T13:44:17;1.97;;;1.87;;
17650;SDS011;26663;59.302;18.082;2022-12-07T13:47:25;3.47;;;1.93;;
17650;SDS011;26663;59.302;18.082;2022-12-07T13:50:36;2.07;;;1.97;;
17650;SDS011;26663;59.302;18.082;2022-12-07T13:53:45;2.33;;;2.23;;
17650;SDS011;26663;59.302;18.082;2022-12-07T13:56:51;2.30;;;2.20;;
17650;SDS011;26663;59.302;18.082;2022-12-07T13:59:57;3.03;;;2.63;;
17650;SDS011;26663;59.302;18.082;2022-12-07T14:03:03;3.60;;;3.00;;
17650;SDS011;26663;59.302;18.082;2022-12-07T14:06:17;2.60;;;2.50;;
17650;SDS011;26663;59.302;18.082;2022-12-07T14:09:29;3.23;;;3.00;;
17650;SDS011;26663;59.302;18.082;2022-12-07T14:12:35;2.27;;;2.00;;
17650;SDS011;26663;59.302;18.082;2022-12-07T14:15:41;1.90;;;1.80;;
17650;SDS011;26663;59.302;18.082;2022-12-07T14:18:46;2.37;;;2.17;;
17650;SDS011;26663;59.302;18.082;2022-12-07T14:25:17;1.80;;;1.70;;
17650;SDS011;26663;59.302;18.082;2022-12-07T14:28:25;2.23;;;1.97;;
17650;SDS011;26663;59.302;18.082;2022-12-07T14:31:30;2.07;;;1.87;;
17650;SDS011;26663;59.302;18.082;2022-12-07T14:34:36;2.07;;;1.90;;
17650;SDS011;26663;59.302;18.082;2022-12-07T14:37:43;2.33;;;1.83;;
17650;SDS011;26663;59.302;18.082;2022-12-07T14:40:50;2.10;;;2.00;;
17650;SDS011;26663;59.302;18.082;2022-12-07T14:43:55;2.40;;;2.20;;
17650;SDS011;26663;59.302;18.082;2022-12-07T14:47:20;2.93;;;1.83;;
17650;SDS011;26663;59.302;18.082;2022-12-07T14:50:47;2.03;;;1.93;;
17650;SDS011;26663;59.302;18.082;2022-12-07T14:54:17;4.30;;;1.80;;
17650;SDS011;26663;59.302;18.082;2022-12-07T14:57:23;2.47;;;2.27;;
17650;SDS011;26663;59.302;18.082;2022-12-07T15:00:28;2.27;;;2.10;;
17650;SDS011;26663;59.302;18.082;2022-12-07T15:03:33;2.73;;;2.10;;
17650;SDS011;26663;59.302;18.082;2022-12-07T15:06:40;2.40;;;2.17;;
17650;SDS011;26663;59.302;18.082;2022-12-07T15:09:47;3.20;;;2.00;;
17650;SDS011;26663;59.302;18.082;2022-12-07T15:12:53;3.60;;;1.80;;
17650;SDS011;26663;59.302;18.082;2022-12-07T15:15:59;4.07;;;1.97;;
17650;SDS011;26663;59.302;18.082;2022-12-07T15:19:04;1.83;;;1.80;;
17650;SDS011;26663;59.302;18.082;2022-12-07T15:22:29;2.70;;;2.07;;
17650;SDS011;26663;59.302;18.082;2022-12-07T15:25:41;2.73;;;2.00;;
17650;SDS011;26663;59.302;18.082;2022-12-07T15:28:47;3.20;;;2.20;;
17650;SDS011;26663;59.302;18.082;2022-12-07T15:31:52;2.13;;;1.90;;
17650;SDS011;26663;59.302;18.082;2022-12-07T15:34:59;5.43;;;2.20;;
17650;SDS011;26663;59.302;18.082;2022-12-07T15:38:05;2.13;;;2.03;;
17650;SDS011;26663;59.302;18.082;2022-12-07T15:41:12;3.13;;;2.20;;
17650;SDS011;26663;59.302;18.082;2022-12-07T15:44:17;3.43;;;2.80;;
17650;SDS011;26663;59.302;18.082;2022-12-07T15:47:41;2.50;;;2.40;;
17650;SDS011;26663;59.302;18.082;2022-12-07T15:51:08;9.07;;;3.77;;
17650;SDS011;26663;59.302;18.082;2022-12-07T15:54:13;6.80;;;4.30;;
17650;SDS011;26663;59.302;18.082;2022-12-07T15:57:24;7.87;;;3.70;;
17650;SDS011;26663;59.302;18.082;2022-12-07T16:00:28;21.20;;;9.50;;
17650;SDS011;26663;59.302;18.082;2022-12-07T16:03:34;7.47;;;3.37;;
17650;SDS011;26663;59.302;18.082;2022-12-07T16:06:39;2.67;;;2.57;;
17650;SDS011;26663;59.302;18.082;2022-12-07T16:09:44;2.77;;;2.63;;
17650;SDS011;26663;59.302;18.082;2022-12-07T16:12:50;3.80;;;2.53;;
17650;SDS011;26663;59.302;18.082;2022-12-07T16:15:55;5.63;;;2.10;;
17650;SDS011;26663;59.302;18.082;2022-12-07T16:19:00;2.70;;;2.47;;
17650;SDS011;26663;59.302;18.082;2022-12-07T16:22:07;2.83;;;2.60;;
17650;SDS011;26663;59.302;18.082;2022-12-07T16:25:12;2.67;;;2.47;;
17650;SDS011;26663;59.302;18.082;2022-12-07T16:28:19;2.63;;;2.50;;
17650;SDS011;26663;59.302;18.082;2022-12-07T16:31:25;2.57;;;2.37;;
17650;SDS011;26663;59.302;18.082;2022-12-07T16:34:33;2.53;;;2.33;;
17650;SDS011;26663;59.302;18.082;2022-12-07T16:37:37;4.83;;;2.87;;
17650;SDS011;26663;59.302;18.082;2022-12-07T16:40:46;3.43;;;2.50;;
17650;SDS011;26663;59.302;18.082;2022-12-07T16:43:52;4.33;;;2.40;;
17650;SDS011;26663;59.302;18.082;2022-12-07T16:46:57;3.93;;;2.77;;
17650;SDS011;26663;59.302;18.082;2022-12-07T16:50:04;3.80;;;2.50;;
17650;SDS011;26663;59.302;18.082;2022-12-07T16:53:12;4.30;;;2.93;;
17650;SDS011;26663;59.302;18.082;2022-12-07T16:56:18;3.17;;;2.90;;
17650;SDS011;26663;59.302;18.082;2022-12-07T16:59:24;3.80;;;3.57;;
17650;SDS011;26663;59.302;18.082;2022-12-07T17:02:29;4.00;;;3.47;;
17650;SDS011;26663;59.302;18.082;2022-12-07T17:05:36;3.80;;;3.27;;
17650;SDS011;26663;59.302;18.082;2022-12-07T17:08:42;3.37;;;3.10;;
17650;SDS011;26663;59.302;18.082;2022-12-07T17:11:47;3.97;;;2.80;;
17650;SDS011;26663;59.302;18.082;2022-12-07T17:14:54;3.60;;;2.90;;
17650;SDS011;26663;59.302;18.082;2022-12-07T17:18:16;3.43;;;2.50;;
17650;SDS011;26663;59.302;18.082;2022-12-07T17:21:21;2.97;;;2.67;;
17650;SDS011;26663;59.302;18.082;2022-12-07T17:24:26;4.87;;;3.30;;
17650;SDS011;26663;59.302;18.082;2022-12-07T17:27:31;3.40;;;3.17;;
17650;SDS011;26663;59.302;18.082;2022-12-07T17:30:38;7.53;;;3.73;;
17650;SDS011;26663;59.302;18.082;2022-12-07T17:33:43;4.30;;;3.93;;
17650;SDS011;26663;59.302;18.082;2022-12-07T17:36:48;6.87;;;4.27;;
17650;SDS011;26663;59.302;18.082;2022-12-07T17:39:53;5.90;;;4.07;;
17650;SDS011;26663;59.302;18.082;2022-12-07T17:42:59;5.33;;;4.07;;
17650;SDS011;26663;59.302;18.082;2022-12-07T17:46:08;5.60;;;4.43;;
17650;SDS011;26663;59.302;18.082;2022-12-07T17:49:13;4.47;;;4.17;;
17650;SDS011;26663;59.302;18.082;2022-12-07T17:52:19;3.63;;;3.43;;
17650;SDS011;26663;59.302;18.082;2022-12-07T17:55:41;3.60;;;3.30;;
17650;SDS011;26663;59.302;18.082;2022-12-07T17:59:06;3.07;;;2.83;;
17650;SDS011;26663;59.302;18.082;2022-12-07T18:02:13;3.27;;;2.93;;
17650;SDS011;26663;59.302;18.082;2022-12-07T18:05:18;3.37;;;3.07;;
17650;SDS011;26663;59.302;18.082;2022-12-07T18:08:23;3.77;;;3.07;;
17650;SDS011;26663;59.302;18.082;2022-12-07T18:11:28;3.00;;;2.83;;
17650;SDS011;26663;59.302;18.082;2022-12-07T18:14:33;2.67;;;2.50;;
17650;SDS011;26663;59.302;18.082;2022-12-07T18:17:39;3.97;;;3.40;;
17650;SDS011;26663;59.302;18.082;2022-12-07T18:20:44;4.97;;;2.70;;
17650;SDS011;26663;59.302;18.082;2022-12-07T18:23:50;2.93;;;2.73;;
17650;SDS011;26663;59.302;18.082;2022-12-07T18:26:56;3.47;;;3.17;;
17650;SDS011;26663;59.302;18.082;2022-12-07T18:30:01;3.53;;;3.20;;
17650;SDS011;26663;59.302;18.082;2022-12-07T18:33:07;4.80;;;3.20;;
17650;SDS011;26663;59.302;18.082;2022-12-07T18:36:13;3.10;;;2.90;;
17650;SDS011;26663;59.302;18.082;2022-12-07T18:39:19;4.47;;;3.10;;
17650;SDS011;26663;59.302;18.082;2022-12-07T18:42:23;3.03;;;2.83;;
17650;SDS011;26663;59.302;18.082;2022-12-07T18:45:28;3.40;;;3.10;;
17650;SDS011;26663;59.302;18.082;2022-12-07T18:48:35;3.27;;;2.90;;
17650;SDS011;26663;59.302;18.082;2022-12-07T18:51:40;3.20;;;2.90;;
17650;SDS011;26663;59.302;18.082;2022-12-07T18:54:46;2.80;;;2.70;;
17650;SDS011;26663;59.302;18.082;2022-12-07T18:57:51;2.90;;;2.70;;
17650;SDS011;26663;59.302;18.082;2022-12-07T19:00:56;3.90;;;3.60;;
17650;SDS011;26663;59.302;18.082;2022-12-07T19:04:03;4.47;;;3.53;;
17650;SDS011;26663;59.302;18.082;2022-12-07T19:07:08;3.40;;;3.10;;